Startpagina
METAR-TAF:

METAR-TAF

Vliegvelden :

Haiderabad, India

breedte: 17-27N, lengte: 078-28E, hoogte: 530 m

Actueel weer

Dit bericht is 9 minuten geleden gemaakt, om 11:30 UTC
Wind 6 kt uit het oostzuidoosten
Temperatuur 36°C
Vochtigheid 31%
Druk 1012 hPa
Zicht: 6000 m
Verspreide wolken op 2000 ft

METAR: VOHY 251130Z 11006KT 6000 SCT020 36/16 Q1012 NOSIG

Tijdstip: 17:09 (11:39 UTC)

Verwachting

Dit bericht is 3 uur en het 39 minuten geleden gemaakt, om 08:00 UTC
Verwachting geldig van 25 om 09 UTC tot 25 om 18 UTC
Wind 8 kt uit het zuidzuidoosten
Zicht: 6000 m
Weinig wolken op 1500 ft
Verspreide wolken op 2500 ft
Wijzigt naar
van 25 om 13 UTC tot 25 om 15 UTC
Wind 8 kt uit het zuidzuidoosten
Weinig wolken op 1500 ft

TAF: VOHY 250800Z 2509/2518 16008KT 6000 FEW015 SCT025 BECMG 2513/2515 16008KT FEW015

Waarnemingen en weersverwachtingen van meer dan 4000 vliegvelden (METAR en TAF).

De beschikbare stations zijn de gele en rode punten op de kaart.

Ga met uw muis naar het station om de naam te zien.

Klik dan om waarnemingen en weersverwachtingen te zien.

kaart wijzigen: klik op de groene knoppen met een zwart kruis om in te zoomen, op de groene knop met een streepje om uit te zoomen of op de groene pijlen voor aangrenzende kaarten.


METAR-TAF: